Time;durP1;ratioP1;P1;durP2;ratioP2;P2;SDS_P1;SDS_P2;PMS_P1;PMS_P2;Temp;Humidity;BMP_temperature;BMP_pressure;BME280_temperature;BME280_humidity;BME280_pressure;Samples;Min_cycle;Max_cycle;Signal;HPM_P1;HPM_P2
2021/11/07 00:00:51;;;;;;;4.87;3.40;;;;;;;;;;5129044;28;20169;-62
2021/11/07 00:03:26;;;;;;;3.70;3.40;;;;;;;;;;5130301;27;20197;-61
2021/11/07 00:10:58;;;;;;;7.37;3.20;;;;;;;;;;5122076;27;20183;-59
2021/11/07 00:13:26;;;;;;;3.13;2.83;;;;;;;;;;5132358;27;20158;-59
2021/11/07 00:15:53;;;;;;;3.37;3.00;;;;;;;;;;5132500;27;20162;-60
2021/11/07 00:18:36;;;;;;;3.63;3.30;;;;;;;;;;5113320;27;20178;-59
2021/11/07 00:21:11;;;;;;;3.10;2.80;;;;;;;;;;5113126;27;20257;-61
2021/11/07 00:26:29;;;;;;;3.40;3.00;;;;;;;;;;5126570;27;20712;-60
2021/11/07 00:29:05;;;;;;;5.20;3.10;;;;;;;;;;5132533;27;20715;-60
2021/11/07 00:31:48;;;;;;;4.27;3.37;;;;;;;;;;5113520;27;20468;-60
2021/11/07 00:36:44;;;;;;;3.40;3.10;;;;;;;;;;5131472;27;20319;-60
2021/11/07 00:40:05;;;;;;;4.13;3.17;;;;;;;;;;5113633;27;20261;-60
2021/11/07 00:44:38;;;;;;;4.97;3.20;;;;;;;;;;5119138;27;20532;-60
2021/11/07 00:49:56;;;;;;;3.83;3.40;;;;;;;;;;5131517;27;20241;-61
2021/11/07 00:55:07;;;;;;;5.63;3.73;;;;;;;;;;5131940;27;20175;-60
2021/11/07 01:01:01;;;;;;;5.27;3.83;;;;;;;;;;5131813;27;20159;-61
2021/11/07 01:03:12;;;;;;;4.67;4.00;;;;;;;;;;5101698;28;20195;-61
2021/11/07 01:05:38;;;;;;;4.20;3.80;;;;;;;;;;5110916;28;20179;-61
2021/11/07 01:08:04;;;;;;;6.47;3.97;;;;;;;;;;5129157;27;20215;-62
2021/11/07 01:10:30;;;;;;;3.63;3.33;;;;;;;;;;5131814;27;20736;-62
2021/11/07 01:12:57;;;;;;;6.63;4.17;;;;;;;;;;5130343;27;20186;-61
2021/11/07 01:15:24;;;;;;;3.90;3.53;;;;;;;;;;5127774;27;20470;-62
2021/11/07 01:17:50;;;;;;;4.53;4.00;;;;;;;;;;5098411;28;20183;-60
2021/11/07 01:20:19;;;;;;;3.90;3.50;;;;;;;;;;5092382;28;20262;-63
2021/11/07 01:23:07;;;;;;;4.30;3.90;;;;;;;;;;5125809;27;20711;-62
2021/11/07 01:25:38;;;;;;;4.87;3.73;;;;;;;;;;5130887;27;20214;-63
2021/11/07 01:28:06;;;;;;;4.57;3.57;;;;;;;;;;5112090;27;20214;-60
2021/11/07 01:30:38;;;;;;;5.27;4.00;;;;;;;;;;5112778;27;20202;-63
2021/11/07 01:33:09;;;;;;;4.27;3.87;;;;;;;;;;5130201;27;20178;-62
2021/11/07 01:35:46;;;;;;;5.43;4.37;;;;;;;;;;5130998;27;20277;-61
2021/11/07 01:38:23;;;;;;;5.70;4.40;;;;;;;;;;5130429;27;20621;-62
2021/11/07 01:41:25;;;;;;;4.90;4.27;;;;;;;;;;5112626;27;20253;-63
2021/11/07 01:43:43;;;;;;;4.53;4.13;;;;;;;;;;5113209;27;20197;-61
2021/11/07 01:46:25;;;;;;;4.07;3.67;;;;;;;;;;5129440;27;20675;-62
2021/11/07 01:49:01;;;;;;;4.33;3.90;;;;;;;;;;5112657;27;20257;-61
2021/11/07 01:51:29;;;;;;;5.37;3.80;;;;;;;;;;5095987;27;20162;-61
2021/11/07 01:54:06;;;;;;;6.20;4.27;;;;;;;;;;5094543;27;20183;-61
2021/11/07 01:56:32;;;;;;;4.77;4.00;;;;;;;;;;5130538;27;20180;-60
2021/11/07 01:58:58;;;;;;;4.43;4.03;;;;;;;;;;5130744;27;20170;-62
2021/11/07 02:01:25;;;;;;;4.30;3.90;;;;;;;;;;5130197;27;20170;-61
2021/11/07 02:03:51;;;;;;;4.97;4.47;;;;;;;;;;5130390;27;20174;-61
2021/11/07 02:06:18;;;;;;;5.47;4.17;;;;;;;;;;5128954;27;20561;-60
2021/11/07 02:08:45;;;;;;;4.47;4.07;;;;;;;;;;5130526;27;20265;-61
2021/11/07 02:11:12;;;;;;;4.40;4.00;;;;;;;;;;5111659;27;20190;-61
2021/11/07 02:13:38;;;;;;;5.10;4.00;;;;;;;;;;5130227;27;20174;-61
2021/11/07 02:16:04;;;;;;;4.93;3.97;;;;;;;;;;5100513;27;20171;-62
2021/11/07 02:18:31;;;;;;;4.37;3.97;;;;;;;;;;5107550;28;20229;-62
2021/11/07 02:20:57;;;;;;;4.90;4.40;;;;;;;;;;5090386;27;20183;-61
2021/11/07 02:23:25;;;;;;;5.57;4.90;;;;;;;;;;5110231;27;20214;-61
2021/11/07 02:25:53;;;;;;;5.20;4.00;;;;;;;;;;5094312;27;20190;-60
2021/11/07 02:28:25;;;;;;;5.10;3.67;;;;;;;;;;5100089;28;20171;-61
2021/11/07 02:30:52;;;;;;;4.00;3.60;;;;;;;;;;5109444;28;20171;-59
2021/11/07 02:33:18;;;;;;;5.40;4.30;;;;;;;;;;5096312;27;20202;-60
2021/11/07 02:35:45;;;;;;;5.83;4.07;;;;;;;;;;5093907;27;20182;-63
2021/11/07 02:38:11;;;;;;;4.07;3.60;;;;;;;;;;5110382;28;20215;-62
2021/11/07 02:40:38;;;;;;;4.53;4.13;;;;;;;;;;5129846;27;20213;-60
2021/11/07 02:43:04;;;;;;;7.50;5.17;;;;;;;;;;5110488;28;20212;-63
2021/11/07 02:45:31;;;;;;;4.97;3.80;;;;;;;;;;5109135;27;20640;-62
2021/11/07 02:48:00;;;;;;;5.10;4.00;;;;;;;;;;5128755;27;20200;-61
2021/11/07 02:50:26;;;;;;;4.80;4.00;;;;;;;;;;5110385;27;20258;-62
2021/11/07 02:52:53;;;;;;;6.40;3.77;;;;;;;;;;5128307;27;20182;-61
2021/11/07 02:55:24;;;;;;;4.00;3.70;;;;;;;;;;5108549;28;20167;-62
2021/11/07 02:57:54;;;;;;;4.30;3.80;;;;;;;;;;5117737;27;20163;-62
2021/11/07 03:00:22;;;;;;;4.30;3.90;;;;;;;;;;5128899;27;20178;-61
2021/11/07 03:02:48;;;;;;;4.43;3.90;;;;;;;;;;5128529;27;20186;-62
2021/11/07 03:05:14;;;;;;;4.13;3.70;;;;;;;;;;5109544;27;20554;-62
2021/11/07 03:07:41;;;;;;;4.60;3.70;;;;;;;;;;5110207;27;20209;-61
2021/11/07 03:10:09;;;;;;;3.93;3.60;;;;;;;;;;5110623;27;20224;-61
2021/11/07 03:12:37;;;;;;;4.63;3.70;;;;;;;;;;5128236;27;20174;-62
2021/11/07 03:15:12;;;;;;;4.60;3.50;;;;;;;;;;5127982;27;20170;-62
2021/11/07 03:17:39;;;;;;;4.10;3.60;;;;;;;;;;5109777;28;20185;-60
2021/11/07 03:20:07;;;;;;;4.20;3.70;;;;;;;;;;5109730;28;20181;-62
2021/11/07 03:22:33;;;;;;;3.80;3.50;;;;;;;;;;5122197;28;20240;-62
2021/11/07 03:24:59;;;;;;;6.47;3.60;;;;;;;;;;5129132;28;20174;-62
2021/11/07 03:27:32;;;;;;;4.10;3.70;;;;;;;;;;5129183;28;20736;-63
2021/11/07 03:30:00;;;;;;;3.80;3.50;;;;;;;;;;5110837;28;20679;-62
2021/11/07 03:32:36;;;;;;;3.73;3.43;;;;;;;;;;5110494;28;20306;-61
2021/11/07 03:35:04;;;;;;;4.27;3.63;;;;;;;;;;5106530;28;20178;-62
2021/11/07 03:37:36;;;;;;;3.60;3.33;;;;;;;;;;5110861;27;20654;-63
2021/11/07 03:40:05;;;;;;;5.47;3.83;;;;;;;;;;5114843;27;20663;-62
2021/11/07 03:42:32;;;;;;;3.60;3.30;;;;;;;;;;5132753;27;20182;-62
2021/11/07 03:44:58;;;;;;;5.60;3.73;;;;;;;;;;5103114;27;20643;-62
2021/11/07 03:47:24;;;;;;;4.83;4.33;;;;;;;;;;5114193;27;20632;-62
2021/11/07 03:49:52;;;;;;;4.07;3.67;;;;;;;;;;5113696;27;20181;-61
2021/11/07 03:52:18;;;;;;;4.27;3.87;;;;;;;;;;5132698;27;20607;-61
2021/11/07 03:54:48;;;;;;;3.63;3.33;;;;;;;;;;5114514;27;20200;-63
2021/11/07 03:57:14;;;;;;;4.47;4.03;;;;;;;;;;5114131;27;20305;-62
2021/11/07 03:59:42;;;;;;;6.53;4.20;;;;;;;;;;5105399;28;20677;-62
2021/11/07 04:02:11;;;;;;;4.80;3.50;;;;;;;;;;5104695;27;20641;-63
2021/11/07 04:04:39;;;;;;;3.87;3.53;;;;;;;;;;5131783;27;20535;-62
2021/11/07 04:07:05;;;;;;;4.67;3.80;;;;;;;;;;5113563;27;20640;-63
2021/11/07 04:09:31;;;;;;;4.07;3.77;;;;;;;;;;5133031;27;20208;-63
2021/11/07 04:11:59;;;;;;;5.27;3.40;;;;;;;;;;5114243;27;20182;-62
2021/11/07 04:14:25;;;;;;;8.23;4.30;;;;;;;;;;5110956;27;20439;-63
2021/11/07 04:16:52;;;;;;;6.43;5.93;;;;;;;;;;5113577;27;20241;-62
2021/11/07 04:19:18;;;;;;;4.67;4.27;;;;;;;;;;5105319;27;20174;-61
2021/11/07 04:21:48;;;;;;;4.67;4.27;;;;;;;;;;5131989;27;20226;-61
2021/11/07 04:24:15;;;;;;;4.60;3.93;;;;;;;;;;5132662;27;20227;-60
2021/11/07 04:26:41;;;;;;;4.07;3.57;;;;;;;;;;5101800;27;20214;-62
2021/11/07 04:29:07;;;;;;;5.23;4.07;;;;;;;;;;5121959;27;20645;-61
2021/11/07 04:31:33;;;;;;;5.43;4.93;;;;;;;;;;5117249;27;20534;-63
2021/11/07 04:33:59;;;;;;;4.80;3.70;;;;;;;;;;5113673;27;20459;-62
2021/11/07 04:36:26;;;;;;;5.50;4.40;;;;;;;;;;5112655;27;20189;-63
2021/11/07 04:38:52;;;;;;;5.23;4.70;;;;;;;;;;5096850;27;20206;-62
2021/11/07 04:41:21;;;;;;;4.63;4.23;;;;;;;;;;5113154;27;20982;-62
2021/11/07 04:43:48;;;;;;;4.20;3.80;;;;;;;;;;5106488;28;20522;-60
2021/11/07 04:46:15;;;;;;;4.70;4.20;;;;;;;;;;5114405;27;20206;-61
2021/11/07 04:48:45;;;;;;;6.67;4.37;;;;;;;;;;5112642;27;20181;-62
2021/11/07 04:51:12;;;;;;;4.17;3.87;;;;;;;;;;5112427;27;20178;-62
2021/11/07 04:53:38;;;;;;;4.23;3.83;;;;;;;;;;5113210;27;20170;-62
2021/11/07 04:56:05;;;;;;;4.90;4.40;;;;;;;;;;5112550;27;20629;-63
2021/11/07 04:58:31;;;;;;;4.70;4.30;;;;;;;;;;5131606;27;20173;-62
2021/11/07 05:01:00;;;;;;;4.83;4.37;;;;;;;;;;5106366;27;20179;-60
2021/11/07 05:03:28;;;;;;;5.47;4.97;;;;;;;;;;5131156;27;20209;-62
2021/11/07 05:05:54;;;;;;;4.40;4.00;;;;;;;;;;5111698;27;20358;-61
2021/11/07 05:08:20;;;;;;;5.70;5.20;;;;;;;;;;5121561;27;20198;-62
2021/11/07 05:10:47;;;;;;;4.80;4.40;;;;;;;;;;5093164;28;20181;-63
2021/11/07 05:13:13;;;;;;;5.17;4.67;;;;;;;;;;5112491;27;20240;-63
2021/11/07 05:15:40;;;;;;;5.00;4.50;;;;;;;;;;5112017;27;20596;-63
2021/11/07 05:18:06;;;;;;;6.30;4.63;;;;;;;;;;5112136;27;20193;-62
2021/11/07 05:20:32;;;;;;;6.17;4.93;;;;;;;;;;5112345;27;20231;-63
2021/11/07 05:22:58;;;;;;;5.10;4.70;;;;;;;;;;5130479;27;20249;-61
2021/11/07 05:25:25;;;;;;;6.60;6.00;;;;;;;;;;5123553;27;20288;-62
2021/11/07 05:27:51;;;;;;;5.73;4.83;;;;;;;;;;5127096;27;20210;-62
2021/11/07 05:30:18;;;;;;;5.37;4.87;;;;;;;;;;5112675;27;20178;-62
2021/11/07 05:32:44;;;;;;;5.23;4.47;;;;;;;;;;5130749;27;20174;-63
2021/11/07 05:35:15;;;;;;;8.97;5.40;;;;;;;;;;5095289;27;20716;-62
2021/11/07 05:37:41;;;;;;;5.63;5.13;;;;;;;;;;5111588;27;20225;-63
2021/11/07 05:40:08;;;;;;;5.93;5.33;;;;;;;;;;5112257;27;20181;-63
2021/11/07 05:42:35;;;;;;;7.37;5.20;;;;;;;;;;5112045;27;20190;-63
2021/11/07 05:45:01;;;;;;;6.40;5.70;;;;;;;;;;5095172;28;20194;-63
2021/11/07 05:47:27;;;;;;;6.03;5.53;;;;;;;;;;5122955;27;20198;-61
2021/11/07 05:49:57;;;;;;;5.73;5.17;;;;;;;;;;5111615;27;20174;-63
2021/11/07 05:52:24;;;;;;;6.17;5.57;;;;;;;;;;5102325;28;20189;-62
2021/11/07 05:54:50;;;;;;;5.97;5.47;;;;;;;;;;5110535;28;20184;-63
2021/11/07 05:57:16;;;;;;;6.67;5.63;;;;;;;;;;5121734;27;20182;-60
2021/11/07 05:59:43;;;;;;;7.03;5.90;;;;;;;;;;5129735;27;20182;-62
2021/11/07 06:02:10;;;;;;;6.17;5.60;;;;;;;;;;5111680;27;20528;-62
2021/11/07 06:04:37;;;;;;;6.53;5.93;;;;;;;;;;5111118;27;20182;-60
2021/11/07 06:07:03;;;;;;;6.90;5.57;;;;;;;;;;5110940;27;20255;-62
2021/11/07 06:09:29;;;;;;;5.73;5.23;;;;;;;;;;5111716;27;20215;-63
2021/11/07 06:11:55;;;;;;;5.83;5.23;;;;;;;;;;5110553;27;20687;-63
2021/11/07 06:14:22;;;;;;;5.97;5.47;;;;;;;;;;5116256;27;20541;-61
2021/11/07 06:16:48;;;;;;;6.87;5.90;;;;;;;;;;5103212;28;20601;-61
2021/11/07 06:19:17;;;;;;;5.80;5.30;;;;;;;;;;5109308;27;20658;-63
2021/11/07 06:21:46;;;;;;;5.40;4.90;;;;;;;;;;5092012;28;20183;-61
2021/11/07 06:24:18;;;;;;;7.87;7.00;;;;;;;;;;5109650;27;20172;-61
2021/11/07 06:26:44;;;;;;;6.33;5.73;;;;;;;;;;5115378;27;20212;-61
2021/11/07 06:29:10;;;;;;;5.93;5.33;;;;;;;;;;5129137;27;20511;-61
2021/11/07 06:31:36;;;;;;;7.03;6.33;;;;;;;;;;5125692;27;20672;-61
2021/11/07 06:34:02;;;;;;;5.90;5.40;;;;;;;;;;5110351;27;20637;-62
2021/11/07 06:36:28;;;;;;;9.33;6.00;;;;;;;;;;5092533;28;20579;-61
2021/11/07 06:38:55;;;;;;;7.10;6.40;;;;;;;;;;5109545;27;20646;-62
2021/11/07 06:41:21;;;;;;;6.63;6.00;;;;;;;;;;5111745;27;20269;-59
2021/11/07 06:43:47;;;;;;;6.13;5.60;;;;;;;;;;5109181;28;20188;-61
2021/11/07 06:46:13;;;;;;;6.57;5.97;;;;;;;;;;5123734;27;20747;-62
2021/11/07 06:48:41;;;;;;;7.03;6.10;;;;;;;;;;5128654;27;20171;-61
2021/11/07 06:51:07;;;;;;;6.33;5.73;;;;;;;;;;5128825;27;20754;-62
2021/11/07 06:53:35;;;;;;;7.53;6.77;;;;;;;;;;5119900;27;20170;-60
2021/11/07 06:56:01;;;;;;;7.70;6.97;;;;;;;;;;5128974;27;20181;-62
2021/11/07 06:58:27;;;;;;;6.70;5.93;;;;;;;;;;5111775;27;20203;-62
2021/11/07 07:00:53;;;;;;;7.50;6.80;;;;;;;;;;5115869;27;20167;-60
2021/11/07 07:03:19;;;;;;;7.20;6.50;;;;;;;;;;5120018;27;20171;-60
2021/11/07 07:05:46;;;;;;;8.07;6.90;;;;;;;;;;5108469;28;20181;-62
2021/11/07 07:08:25;;;;;;;6.60;5.93;;;;;;;;;;5112143;27;20211;-61
2021/11/07 07:11:07;;;;;;;9.50;7.03;;;;;;;;;;5120997;27;20165;-60
2021/11/07 07:13:44;;;;;;;8.07;6.63;;;;;;;;;;5126959;27;20181;-62
2021/11/07 07:16:38;;;;;;;9.10;6.13;;;;;;;;;;5128539;27;20170;-62
2021/11/07 07:24:47;;;;;;;6.93;6.23;;;;;;;;;;5108500;28;20186;-62
2021/11/07 07:32:40;;;;;;;7.40;6.43;;;;;;;;;;5113454;28;20679;-61
2021/11/07 07:35:06;;;;;;;8.50;7.20;;;;;;;;;;5108603;28;20168;-61
2021/11/07 07:37:32;;;;;;;7.30;6.60;;;;;;;;;;5102432;28;20707;-62
2021/11/07 07:39:59;;;;;;;8.90;6.60;;;;;;;;;;5125234;28;20202;-62
2021/11/07 07:42:26;;;;;;;8.67;6.83;;;;;;;;;;5095154;28;20556;-61
2021/11/07 07:44:53;;;;;;;7.90;7.10;;;;;;;;;;5093285;28;20183;-62
2021/11/07 07:47:20;;;;;;;13.03;7.83;;;;;;;;;;5114175;28;21108;-60
2021/11/07 07:49:50;;;;;;;8.63;7.73;;;;;;;;;;5117493;28;20206;-62
2021/11/07 07:52:20;;;;;;;11.27;8.20;;;;;;;;;;5104019;28;20254;-62
2021/11/07 07:54:49;;;;;;;10.97;8.43;;;;;;;;;;5100361;28;20587;-61
2021/11/07 07:57:15;;;;;;;10.50;8.10;;;;;;;;;;5104118;28;20600;-61
2021/11/07 07:59:42;;;;;;;9.87;7.70;;;;;;;;;;5124543;28;20182;-62
2021/11/07 08:02:08;;;;;;;10.57;8.13;;;;;;;;;;5098901;28;20631;-61
2021/11/07 08:04:35;;;;;;;10.40;9.07;;;;;;;;;;5114584;28;20177;-61
2021/11/07 08:07:01;;;;;;;11.17;8.83;;;;;;;;;;5098033;28;20198;-61
2021/11/07 08:09:27;;;;;;;9.70;7.73;;;;;;;;;;5089965;28;20630;-62
2021/11/07 08:11:54;;;;;;;9.93;8.93;;;;;;;;;;5105790;28;20643;-61
2021/11/07 08:14:20;;;;;;;9.33;8.27;;;;;;;;;;5109520;28;20182;-61
2021/11/07 08:16:47;;;;;;;10.80;8.47;;;;;;;;;;5109609;28;20214;-62
2021/11/07 08:19:15;;;;;;;9.70;8.37;;;;;;;;;;5108944;28;20187;-61
2021/11/07 08:21:42;;;;;;;8.60;7.50;;;;;;;;;;5094716;28;20262;-62
2021/11/07 08:24:10;;;;;;;9.70;8.27;;;;;;;;;;5109609;27;20193;-61
2021/11/07 08:26:40;;;;;;;11.60;8.57;;;;;;;;;;5126014;27;20764;-61
2021/11/07 08:29:08;;;;;;;12.37;7.63;;;;;;;;;;5093246;28;20212;-61
2021/11/07 08:31:36;;;;;;;13.87;7.83;;;;;;;;;;5113916;27;20272;-61
2021/11/07 08:34:04;;;;;;;10.70;8.23;;;;;;;;;;5097596;27;20553;-62
2021/11/07 08:39:07;;;;;;;8.93;7.43;;;;;;;;;;5132009;27;20162;-61
2021/11/07 08:41:34;;;;;;;11.20;7.87;;;;;;;;;;5119737;27;20163;-59
2021/11/07 09:05:52;;;;;;;9.80;7.00;;;;;;;;;;5101937;27;20194;-62
2021/11/07 09:08:19;;;;;;;10.47;6.30;;;;;;;;;;5103642;28;20207;-60
2021/11/07 09:10:46;;;;;;;11.93;5.83;;;;;;;;;;5103307;27;20186;-62
2021/11/07 09:13:13;;;;;;;10.67;5.90;;;;;;;;;;5111343;27;20178;-59
2021/11/07 09:15:43;;;;;;;10.80;5.77;;;;;;;;;;5094118;27;20523;-59
2021/11/07 09:18:09;;;;;;;8.07;5.90;;;;;;;;;;5105061;28;20246;-59
2021/11/07 09:20:54;;;;;;;12.53;5.80;;;;;;;;;;5088997;28;20239;-61
2021/11/07 09:23:32;;;;;;;7.77;5.43;;;;;;;;;;5110336;28;20325;-60
2021/11/07 09:33:52;;;;;;;7.97;5.73;;;;;;;;;;5113744;27;20638;-61
2021/11/07 09:36:29;;;;;;;8.67;4.87;;;;;;;;;;5100330;27;20813;-60
2021/11/07 09:39:07;;;;;;;7.30;5.10;;;;;;;;;;5113181;27;20282;-58
2021/11/07 09:44:08;;;;;;;9.43;4.83;;;;;;;;;;5111543;27;20662;-60
2021/11/07 09:49:24;;;;;;;6.20;4.57;;;;;;;;;;5111968;27;20495;-61
2021/11/07 09:51:58;;;;;;;10.27;4.60;;;;;;;;;;5117712;27;20171;-58
2021/11/07 09:54:27;;;;;;;9.30;4.30;;;;;;;;;;5113423;27;20605;-60
2021/11/07 09:56:55;;;;;;;9.00;4.23;;;;;;;;;;5129372;27;20204;-61
2021/11/07 09:59:23;;;;;;;8.73;3.77;;;;;;;;;;5092127;27;20266;-61
2021/11/07 10:01:57;;;;;;;10.53;4.20;;;;;;;;;;5099367;27;20925;-60
2021/11/07 10:04:23;;;;;;;15.73;4.10;;;;;;;;;;5121507;27;20195;-62
2021/11/07 10:06:52;;;;;;;9.00;4.10;;;;;;;;;;5098674;28;20537;-62
2021/11/07 10:09:42;;;;;;;10.47;4.20;;;;;;;;;;5127956;27;20175;-61
2021/11/07 10:12:18;;;;;;;6.13;3.73;;;;;;;;;;5128663;27;20167;-62
2021/11/07 10:14:49;;;;;;;11.17;4.17;;;;;;;;;;5129731;27;20162;-62
2021/11/07 10:17:24;;;;;;;15.03;4.00;;;;;;;;;;5114007;27;20167;-59
2021/11/07 10:20:07;;;;;;;11.03;3.37;;;;;;;;;;5122421;27;20602;-61
2021/11/07 10:22:34;;;;;;;8.80;3.90;;;;;;;;;;5098800;28;20768;-61
2021/11/07 10:25:01;;;;;;;9.77;3.87;;;;;;;;;;5091592;28;20175;-62
2021/11/07 10:27:29;;;;;;;14.77;4.30;;;;;;;;;;5122027;27;20205;-61
2021/11/07 10:30:30;;;;;;;10.40;3.83;;;;;;;;;;5105426;28;20543;-61
2021/11/07 10:33:11;;;;;;;11.27;4.07;;;;;;;;;;5118058;27;20165;-62
2021/11/07 10:38:37;;;;;;;8.37;3.27;;;;;;;;;;5101783;27;20182;-61
2021/11/07 10:44:25;;;;;;;8.60;3.10;;;;;;;;;;5109521;27;20206;-62
2021/11/07 10:47:11;;;;;;;8.47;3.20;;;;;;;;;;5103962;28;20289;-60
2021/11/07 10:52:33;;;;;;;12.63;3.60;;;;;;;;;;5117665;27;20174;-59
2021/11/07 10:55:02;;;;;;;9.70;3.60;;;;;;;;;;5102153;27;20163;-62
2021/11/07 10:57:29;;;;;;;8.63;3.43;;;;;;;;;;5128343;27;20185;-60
2021/11/07 11:00:05;;;;;;;13.63;3.90;;;;;;;;;;5128314;27;20182;-61
2021/11/07 11:02:36;;;;;;;9.63;4.33;;;;;;;;;;5102309;28;20201;-61
2021/11/07 11:05:13;;;;;;;8.23;3.63;;;;;;;;;;5108506;27;20265;-61
2021/11/07 11:07:53;;;;;;;9.80;3.57;;;;;;;;;;5127540;27;20198;-61
2021/11/07 11:10:28;;;;;;;10.00;3.87;;;;;;;;;;5123379;27;20199;-62
2021/11/07 11:13:09;;;;;;;13.57;3.63;;;;;;;;;;5106485;28;20177;-61
2021/11/07 11:15:50;;;;;;;9.03;3.40;;;;;;;;;;5094354;27;20171;-62
2021/11/07 11:21:27;;;;;;;13.70;3.97;;;;;;;;;;5117110;28;20175;-61
2021/11/07 11:24:16;;;;;;;9.67;3.43;;;;;;;;;;5108576;28;20692;-62
2021/11/07 11:27:13;;;;;;;13.17;3.33;;;;;;;;;;5115427;28;20210;-61
2021/11/07 11:29:56;;;;;;;11.27;3.33;;;;;;;;;;5099433;28;20268;-61
2021/11/07 11:35:07;;;;;;;11.97;3.93;;;;;;;;;;5111234;28;20182;-59
2021/11/07 11:45:22;;;;;;;14.43;3.53;;;;;;;;;;5119663;27;20183;-62
2021/11/07 11:48:08;;;;;;;13.03;4.07;;;;;;;;;;5104753;28;20199;-62
2021/11/07 11:50:53;;;;;;;12.73;3.63;;;;;;;;;;5108366;28;20205;-62
2021/11/07 11:56:00;;;;;;;10.70;3.43;;;;;;;;;;5110379;28;20240;-62
2021/11/07 11:59:19;;;;;;;11.10;3.97;;;;;;;;;;5128641;27;20264;-62
2021/11/07 12:01:35;;;;;;;14.63;3.10;;;;;;;;;;5104947;27;20187;-61
2021/11/07 12:04:16;;;;;;;9.30;3.00;;;;;;;;;;5095062;28;20169;-62
2021/11/07 12:06:49;;;;;;;8.47;2.87;;;;;;;;;;5103109;27;20187;-61
2021/11/07 12:12:28;;;;;;;8.10;2.80;;;;;;;;;;5124056;27;20229;-62
2021/11/07 12:15:13;;;;;;;10.50;3.27;;;;;;;;;;5098393;27;20224;-61
2021/11/07 12:17:41;;;;;;;14.03;3.57;;;;;;;;;;5122543;27;20847;-62
2021/11/07 12:20:28;;;;;;;9.73;3.23;;;;;;;;;;5125558;27;20190;-62
2021/11/07 12:23:15;;;;;;;6.47;2.90;;;;;;;;;;5096719;28;20309;-62
2021/11/07 12:25:43;;;;;;;10.37;3.27;;;;;;;;;;5093467;27;20294;-62
2021/11/07 12:28:09;;;;;;;6.43;3.00;;;;;;;;;;5111688;27;20562;-62
2021/11/07 12:30:40;;;;;;;11.10;3.33;;;;;;;;;;5131474;27;20179;-62
2021/11/07 12:33:22;;;;;;;10.40;3.23;;;;;;;;;;5118058;27;20687;-63
2021/11/07 12:36:08;;;;;;;8.07;3.20;;;;;;;;;;5100425;28;20266;-62
2021/11/07 12:41:27;;;;;;;8.90;2.70;;;;;;;;;;5125293;27;20617;-62
2021/11/07 12:44:02;;;;;;;7.10;2.70;;;;;;;;;;5094613;28;20186;-62
2021/11/07 12:49:21;;;;;;;13.47;3.80;;;;;;;;;;5111188;27;20660;-61
2021/11/07 12:52:13;;;;;;;9.17;3.53;;;;;;;;;;5091906;27;20624;-62
2021/11/07 12:54:40;;;;;;;10.30;3.20;;;;;;;;;;5091411;27;20231;-63
2021/11/07 12:57:21;;;;;;;13.73;3.93;;;;;;;;;;5094979;28;20537;-62
2021/11/07 12:59:52;;;;;;;9.07;3.53;;;;;;;;;;5112249;27;20167;-62
2021/11/07 13:02:18;;;;;;;10.37;2.97;;;;;;;;;;5095487;27;20236;-61
2021/11/07 13:04:51;;;;;;;12.20;3.47;;;;;;;;;;5130121;27;20178;-62
2021/11/07 13:07:44;;;;;;;8.83;2.80;;;;;;;;;;5097691;27;20657;-63
2021/11/07 13:10:14;;;;;;;7.07;3.27;;;;;;;;;;5122519;27;20186;-61
2021/11/07 13:12:46;;;;;;;10.33;3.23;;;;;;;;;;5094672;28;20175;-62
2021/11/07 13:20:51;;;;;;;10.97;3.20;;;;;;;;;;5110850;27;20180;-62
2021/11/07 13:31:14;;;;;;;8.43;3.07;;;;;;;;;;5130870;27;20202;-61
2021/11/07 13:33:42;;;;;;;8.87;3.70;;;;;;;;;;5093906;28;20175;-62
2021/11/07 13:36:09;;;;;;;8.87;2.80;;;;;;;;;;5111868;27;20195;-62
2021/11/07 13:38:43;;;;;;;9.37;3.30;;;;;;;;;;5096757;28;20543;-63
2021/11/07 13:41:18;;;;;;;9.00;3.43;;;;;;;;;;5094359;27;20175;-63
2021/11/07 13:43:54;;;;;;;10.20;3.87;;;;;;;;;;5094695;28;20808;-61
2021/11/07 13:46:20;;;;;;;9.80;3.40;;;;;;;;;;5100244;27;20209;-62
2021/11/07 13:49:00;;;;;;;6.30;2.30;;;;;;;;;;5094881;28;20254;-63
2021/11/07 13:51:27;;;;;;;10.27;2.70;;;;;;;;;;5114186;27;20251;-63
2021/11/07 13:53:57;;;;;;;4.67;2.13;;;;;;;;;;5121191;27;20167;-63
2021/11/07 13:56:27;;;;;;;7.90;2.63;;;;;;;;;;5097477;27;20170;-62
2021/11/07 13:58:53;;;;;;;8.53;2.60;;;;;;;;;;5095698;28;20199;-63
2021/11/07 14:01:20;;;;;;;8.17;2.73;;;;;;;;;;5093493;27;20183;-61
2021/11/07 14:03:54;;;;;;;9.27;3.63;;;;;;;;;;5097028;27;20181;-63
2021/11/07 14:06:29;;;;;;;7.60;2.60;;;;;;;;;;5107600;27;20190;-63
2021/11/07 14:08:59;;;;;;;11.00;3.00;;;;;;;;;;5098290;27;20192;-62
2021/11/07 14:11:28;;;;;;;7.27;2.77;;;;;;;;;;5108157;27;20186;-62
2021/11/07 14:13:59;;;;;;;9.80;3.33;;;;;;;;;;5091525;28;20244;-59
2021/11/07 14:16:36;;;;;;;17.20;4.10;;;;;;;;;;5108258;27;20178;-62
2021/11/07 14:19:07;;;;;;;10.07;2.87;;;;;;;;;;5090262;28;20588;-62
2021/11/07 14:21:37;;;;;;;10.33;3.20;;;;;;;;;;5093219;27;20506;-62
2021/11/07 14:26:37;;;;;;;10.77;3.10;;;;;;;;;;5127335;27;20619;-62
2021/11/07 14:29:20;;;;;;;7.37;2.83;;;;;;;;;;5091321;28;20167;-62
2021/11/07 14:32:13;;;;;;;9.90;3.30;;;;;;;;;;5113410;27;20634;-63
2021/11/07 14:34:41;;;;;;;9.50;3.17;;;;;;;;;;5108222;27;20191;-63
2021/11/07 14:40:00;;;;;;;8.70;3.40;;;;;;;;;;5088294;28;20222;-62
2021/11/07 14:53:50;;;;;;;12.13;3.40;;;;;;;;;;5125742;27;20190;-62
2021/11/07 14:56:29;;;;;;;12.10;3.17;;;;;;;;;;5093676;27;20181;-63
2021/11/07 15:04:02;;;;;;;11.33;3.23;;;;;;;;;;5110107;27;20182;-64
2021/11/07 15:06:42;;;;;;;8.63;2.77;;;;;;;;;;5083478;28;20178;-63
2021/11/07 15:09:14;;;;;;;14.50;3.50;;;;;;;;;;5099156;27;20186;-62
2021/11/07 15:11:51;;;;;;;4.97;2.87;;;;;;;;;;5101492;28;20182;-61
2021/11/07 15:14:39;;;;;;;7.83;2.50;;;;;;;;;;5097107;28;20268;-63
2021/11/07 15:17:44;;;;;;;6.27;2.40;;;;;;;;;;5093116;28;20190;-63
2021/11/07 15:20:26;;;;;;;8.80;3.00;;;;;;;;;;5094687;28;20198;-62
2021/11/07 15:22:53;;;;;;;16.83;3.10;;;;;;;;;;5100312;28;20683;-62
2021/11/07 15:25:26;;;;;;;11.20;3.70;;;;;;;;;;5114528;28;20217;-62
2021/11/07 15:27:59;;;;;;;15.57;3.50;;;;;;;;;;5092687;28;20206;-62
2021/11/07 15:30:26;;;;;;;6.87;3.40;;;;;;;;;;5114420;28;20258;-63
2021/11/07 15:32:52;;;;;;;17.20;3.77;;;;;;;;;;5094070;28;20201;-61
2021/11/07 15:35:23;;;;;;;8.40;2.97;;;;;;;;;;5115173;27;20648;-58
2021/11/07 15:37:50;;;;;;;9.50;3.30;;;;;;;;;;5099246;27;20548;-58
2021/11/07 15:40:17;;;;;;;8.23;2.73;;;;;;;;;;5125424;27;20194;-58
2021/11/07 15:42:46;;;;;;;13.90;3.77;;;;;;;;;;5100646;27;20188;-57
2021/11/07 15:45:15;;;;;;;8.13;3.30;;;;;;;;;;5114218;27;20611;-57
2021/11/07 15:47:54;;;;;;;14.90;3.50;;;;;;;;;;5118045;27;20573;-57
2021/11/07 15:55:47;;;;;;;12.73;3.07;;;;;;;;;;5120403;27;20205;-55
2021/11/07 16:01:03;;;;;;;8.60;3.30;;;;;;;;;;5120409;27;20171;-56
2021/11/07 16:16:38;;;;;;;8.80;3.37;;;;;;;;;;5124388;27;20171;-56
2021/11/07 16:19:09;;;;;;;14.57;4.20;;;;;;;;;;5104915;27;20185;-56
2021/11/07 16:21:43;;;;;;;12.07;3.80;;;;;;;;;;5090819;27;20537;-58
2021/11/07 16:24:10;;;;;;;13.60;3.87;;;;;;;;;;5104026;27;20191;-60
2021/11/07 16:26:37;;;;;;;12.33;3.70;;;;;;;;;;5123901;27;20719;-62
2021/11/07 16:29:03;;;;;;;12.77;4.30;;;;;;;;;;5125323;27;20167;-61
2021/11/07 16:31:38;;;;;;;12.97;4.50;;;;;;;;;;5112476;27;20175;-61
2021/11/07 16:34:09;;;;;;;6.70;3.20;;;;;;;;;;5113939;27;20250;-61
2021/11/07 16:36:38;;;;;;;15.40;4.27;;;;;;;;;;5118104;27;20203;-61
2021/11/07 16:39:13;;;;;;;11.30;3.43;;;;;;;;;;5103237;27;20175;-61
2021/11/07 16:41:44;;;;;;;8.57;3.33;;;;;;;;;;5119067;27;20647;-62
2021/11/07 16:44:11;;;;;;;14.13;3.80;;;;;;;;;;5126351;27;20163;-62
2021/11/07 16:46:43;;;;;;;7.80;3.63;;;;;;;;;;5104917;27;20719;-61
2021/11/07 16:49:10;;;;;;;8.70;3.13;;;;;;;;;;5093922;27;20171;-61
2021/11/07 16:51:49;;;;;;;10.37;3.73;;;;;;;;;;5100868;27;20705;-62
2021/11/07 16:54:20;;;;;;;9.40;3.50;;;;;;;;;;5123592;27;20178;-61
2021/11/07 16:56:46;;;;;;;7.37;3.73;;;;;;;;;;5115780;27;20198;-62
2021/11/07 17:04:22;;;;;;;8.57;3.70;;;;;;;;;;5114093;27;20171;-61
2021/11/07 17:06:55;;;;;;;11.07;3.50;;;;;;;;;;5120149;27;20541;-62
2021/11/07 17:09:34;;;;;;;8.17;4.13;;;;;;;;;;5125116;27;20266;-61
2021/11/07 17:12:08;;;;;;;12.03;5.20;;;;;;;;;;5121464;27;20225;-61
2021/11/07 17:14:35;;;;;;;11.27;3.37;;;;;;;;;;5103091;27;20715;-62
2021/11/07 17:17:05;;;;;;;16.20;4.00;;;;;;;;;;5106272;27;20269;-62
2021/11/07 17:19:38;;;;;;;10.30;3.77;;;;;;;;;;5100581;27;20213;-63
2021/11/07 17:22:13;;;;;;;9.03;3.30;;;;;;;;;;5097783;27;20723;-59
2021/11/07 17:27:12;;;;;;;7.47;3.23;;;;;;;;;;5124652;27;20289;-58
2021/11/07 17:30:15;;;;;;;11.47;4.03;;;;;;;;;;5117587;27;20202;-62
2021/11/07 17:36:04;;;;;;;7.53;3.23;;;;;;;;;;5112770;27;20197;-61
2021/11/07 17:38:22;;;;;;;11.37;4.07;;;;;;;;;;5119694;27;20191;-60
2021/11/07 17:56:44;;;;;;;10.10;3.33;;;;;;;;;;5112649;27;20202;-59
2021/11/07 17:59:11;;;;;;;7.23;3.30;;;;;;;;;;5119401;27;20224;-61
2021/11/07 18:01:38;;;;;;;7.43;3.43;;;;;;;;;;5120780;27;20652;-60
2021/11/07 18:04:04;;;;;;;11.43;3.50;;;;;;;;;;5090356;27;20186;-59
2021/11/07 18:06:34;;;;;;;10.20;3.00;;;;;;;;;;5100163;28;20171;-61
2021/11/07 18:09:03;;;;;;;7.07;2.87;;;;;;;;;;5112502;27;20182;-60